METAR Data
IDs: Format: Raw Decoded Include TAF

Data at: 0739 UTC 23 Feb 2019

KTFP 230715Z AUTO 17008KT 2SM BR OVC001 21/21 A2981 RMK AO2 LTG DSNT N T02100205 PNO
KTFP 230655Z AUTO 17009KT 1 1/2SM BR OVC001 21/20 A2982 RMK AO2 T02080202 PNO
KTFP 230635Z AUTO 17010KT 1 1/2SM BR OVC001 21/20 A2981 RMK AO2 T02080201 PNO
KTFP 230615Z AUTO 17008KT 3/4SM BR OVC001 20/20 A2983 RMK AO2 T02040196 PNO
KTFP 230555Z AUTO 16008KT 1/2SM FG OVC001 20/19 A2983 RMK AO2 T01970188 PNO
KTFP 230535Z AUTO 15005KT 1/2SM FG OVC001 19/18 A2984 RMK AO2 T01900179 PNO
KTFP 230515Z AUTO 15006KT 1/4SM FG OVC001 19/18 A2984 RMK AO2 T01880177 PNO
KTFP 230455Z AUTO 14006KT 1/4SM FG OVC001 19/18 A2984 RMK AO2 T01850175 PNO
KTFP 230435Z AUTO 14007KT 1/4SM FG OVC001 18/17 A2984 RMK AO2 T01830172 PNO
KTFP 230415Z AUTO 13005KT 1/2SM FG OVC001 18/17 A2984 RMK AO2 T01790168 PNO
KTFP 230355Z AUTO 11003KT 1/2SM FG OVC001 18/16 A2985 RMK AO2 T01760164 PNO
KTFP 230335Z AUTO 12005KT 1/2SM FG OVC001 17/16 A2985 RMK AO2 T01740162 PNO
KTFP 230315Z AUTO 10005KT 1/4SM FG OVC001 17/16 A2986 RMK AO2 T01730162 PNO
KTFP 230255Z AUTO 12005KT 1/4SM FG OVC001 17/16 A2986 RMK AO2 T01740162 PNO
KTFP 230235Z AUTO 09004KT 1/2SM FG OVC001 18/16 A2986 RMK AO2 T01750162 PNO
KTFP 230215Z AUTO 08005KT 1/2SM FG OVC001 18/16 A2986 RMK AO2 T01750162 PNO
KTFP 230155Z AUTO 08003KT 1/2SM FG OVC001 18/16 A2987 RMK AO2 T01750162 PNO
KTFP 230135Z AUTO 08003KT 1/2SM FG OVC001 18/16 A2986 RMK AO2 T01750163 PNO
KTFP 230115Z AUTO 09003KT 3/4SM BR OVC001 18/16 A2985 RMK AO2 T01750163 PNO
KTFP 230055Z AUTO 00000KT 2SM BR OVC001 18/16 A2985 RMK AO2 T01750163 PNO
KTFP 230035Z AUTO 08004KT 3SM BR OVC001 17/16 A2985 RMK AO2 T01740162 PNO
KTFP 230015Z AUTO 00000KT 2 1/2SM BR OVC001 17/16 A2985 RMK AO2 T01720160 PNO
KTFP 222355Z AUTO 07003KT 3SM BR OVC001 17/16 A2984 RMK AO2 T01710160 PNO
KTFP 222335Z AUTO 07005KT 2 1/2SM BR OVC001 17/16 A2984 RMK AO2 T01710160 PNO
KTFP 222315Z AUTO 06005KT 1 1/2SM BR OVC001 17/16 A2984 RMK AO2 T01700158 PNO
KTFP 222255Z AUTO 05004KT 3/4SM BR OVC001 17/16 A2984 RMK AO2 T01670155 PNO
KTFP 222235Z AUTO 05006KT 3/4SM BR OVC001 17/16 A2985 RMK AO2 T01670155 PNO
KTFP 222215Z AUTO 05005KT 1SM BR OVC001 17/15 A2985 RMK AO2 T01650153 PNO
KTFP 222155Z AUTO 05005KT 1/2SM FG OVC001 16/15 A2985 RMK AO2 T01630151 PNO
KTFP 222135Z AUTO 04005KT 3/4SM BR OVC001 16/15 A2984 RMK AO2 T01640151 PNO
KTFP 222115Z AUTO 03005KT 1 3/4SM BR OVC001 16/15 A2985 RMK AO2 T01620150 PNO
KTFP 222055Z AUTO 03006KT 2 1/2SM BR OVC001 16/15 A2985 RMK AO2 VIS 1 3/4V3 T01620150 PNO
KTFP 222035Z AUTO 03006KT 2SM BR OVC001 16/15 A2985 RMK AO2 T01590147 PNO
KTFP 222015Z AUTO 04006KT 1 3/4SM BR OVC001 16/15 A2985 RMK AO2 T01610149 PNO
KTFP 221955Z AUTO 05007KT 1 1/4SM BR OVC001 17/15 A2986 RMK AO2 T01650153 PNO
KTFP 221935Z AUTO 02007KT 2SM BR OVC001 17/16 A2987 RMK AO2 T01690156 PNO
KTFP 221915Z AUTO 01004KT 1 1/2SM RA OVC001 17/16 A2988 RMK AO2 T01690157 PNO
KTFP 221855Z AUTO 36004KT 1 1/4SM BR OVC001 17/15 A2990 RMK AO2 T01650153 PNO
KTFP 221835Z AUTO 02004KT 1SM BR OVC001 16/15 A2990 RMK AO2 T01610150 PNO
KTFP 221815Z AUTO 01006KT 3/4SM BR OVC001 16/15 A2992 RMK AO2 T01570145 PNO
KTFP 221755Z AUTO 02007KT 3/4SM BR OVC001 15/14 A2993 RMK AO2 T01530142 PNO
KTFP 221735Z AUTO 35007KT 3/4SM -DZ OVC001 15/14 A2994 RMK AO2 T01480138 PNO
KTFP 221715Z AUTO 01005KT 1 3/4SM BR OVC001 15/14 A2994 RMK AO2 T01470136 PNO
KTFP 221655Z AUTO 02006KT 3/4SM BR OVC001 15/14 A2994 RMK AO2 T01470135 PNO
KTFP 221635Z AUTO 01005KT 1/2SM -DZ OVC001 15/13 A2994 RMK AO2 T01450134 PNO
KTFP 221615Z AUTO 01004KT 1/2SM FG OVC001 15/13 A2994 RMK AO2 T01450134 PNO
KTFP 221555Z AUTO 02005KT 1/2SM FG OVC001 15/14 A2994 RMK AO2 T01460135 PNO
KTFP 221535Z AUTO 03006KT 3/4SM BR OVC003 15/14 A2994 RMK AO2 T01460135 PNO
KTFP 221515Z AUTO 03004KT 2SM BR OVC003 15/14 A2994 RMK AO2 T01470135 PNO
KTFP 221455Z AUTO 06005KT 3SM BR OVC003 15/13 A2993 RMK AO2 T01450133 PNO
KTFP 221435Z AUTO 05005KT 3SM BR OVC003 14/13 A2993 RMK AO2 T01420131 PNO
KTFP 221415Z AUTO 05005KT 3SM BR OVC003 14/13 A2992 RMK AO2 T01400128 PNO
KTFP 221355Z AUTO 08006KT 2 1/2SM BR OVC001 14/12 A2992 RMK AO2 T01350124 PNO
KTFP 221335Z AUTO 06005KT 1 1/2SM BR OVC001 13/12 A2991 RMK AO2 T01310120 PNO
KTFP 221315Z AUTO 07006KT 1 3/4SM BR OVC001 13/12 A2991 RMK AO2 T01300120 PNO
KTFP 221255Z AUTO 06005KT 2SM BR OVC001 13/12 A2990 RMK AO2 T01300120 PNO
KTFP 221235Z AUTO 06008KT 1 1/4SM BR OVC001 13/12 A2990 RMK AO2 T01310120 PNO
KTFP 221215Z AUTO 05007KT 1 1/4SM BR OVC001 13/12 A2990 RMK AO2 T01320121 PNO
KTFP 221155Z AUTO 05009KT 1 1/4SM BR OVC001 13/12 A2990 RMK AO2 T01310121 PNO
KTFP 221135Z AUTO 04007KT 1 1/2SM BR OVC001 13/12 A2990 RMK AO2 T01320121 PNO
KTFP 221115Z AUTO 04009G15KT 1 3/4SM BR OVC001 13/12 A2990 RMK AO2 T01330122 PNO
KTFP 221055Z AUTO 05009KT 1SM BR OVC001 13/12 A2989 RMK AO2 T01330122 PNO
KTFP 221035Z AUTO 04007KT 1 1/4SM BR OVC001 13/12 A2990 RMK AO2 T01330122 PNO
KTFP 221015Z AUTO 06011G14KT 1SM BR OVC001 13/12 A2988 RMK AO2 T01330122 PNO
KTFP 220955Z AUTO 05011KT 1SM BR OVC001 14/12 A2988 RMK AO2 T01350123 PNO
KTFP 220935Z AUTO 04009G14KT 1SM BR OVC001 14/13 A2989 RMK AO2 T01350125 PNO
KTFP 220915Z AUTO 05011KT 3/4SM BR OVC001 14/13 A2988 RMK AO2 T01350125 PNO
KTFP 220855Z AUTO 04008KT 3/4SM BR OVC001 14/13 A2989 RMK AO2 T01360125 PNO
KTFP 220835Z AUTO 04008KT 3/4SM BR OVC001 14/13 A2990 RMK AO2 T01360125 PNO
KTFP 220815Z AUTO 04007KT 3/4SM BR OVC001 14/13 A2990 RMK AO2 T01360125 PNO
KTFP 220755Z AUTO 03009KT 1/2SM FG OVC001 14/13 A2990 RMK AO2 T01360125 PNO
KTFP 220735Z AUTO 03009KT 1/2SM FG OVC001 14/13 A2990 RMK AO2 T01380126 PNO
KTFP 220715Z AUTO 04009KT 1/2SM FG OVC001 14/13 A2989 RMK AO2 T01390127 PNO
KTFP 220655Z AUTO 04007KT 1/2SM FG OVC001 14/13 A2991 RMK AO2 T01400129 PNO
KTFP 220635Z AUTO 02008KT 3/4SM BR OVC001 14/13 A2991 RMK AO2 T01420130 PNO
KTFP 220615Z AUTO 04007KT 3/4SM BR OVC001 14/13 A2990 RMK AO2 T01430131 PNO
KTFP 220555Z AUTO 05006KT 1 1/4SM BR OVC001 15/13 A2990 RMK AO2 T01450131 PNO
KTFP 220535Z AUTO 04005KT 5SM BR OVC003 15/13 A2991 RMK AO2 T01450131 PNO
KTFP 220515Z AUTO 05005KT 5SM BR OVC003 15/13 A2991 RMK AO2 T01450130 PNO
KTFP 220455Z AUTO 05006KT 7SM OVC003 15/13 A2990 RMK AO2 T01450130 PNO
KTFP 220435Z AUTO 09008KT 7SM OVC003 15/13 A2989 RMK AO2 T01450130 PNO
KTFP 220415Z AUTO 07007G15KT 7SM OVC005 14/13 A2988 RMK AO2 T01440127 PNO
KTFP 220355Z AUTO 08009KT 10SM OVC005 15/13 A2989 RMK AO2 T01450126 PNO
KTFP 220335Z AUTO 08009KT 10SM OVC005 15/13 A2989 RMK AO2 T01450125 PNO
KTFP 220315Z AUTO 07007KT 10SM OVC007 15/13 A2989 RMK AO2 T01450125 PNO
KTFP 220255Z AUTO 07006KT 10SM OVC007 15/12 A2988 RMK AO2 T01450124 PNO
KTFP 220235Z AUTO 07008KT 10SM OVC007 15/12 A2989 RMK AO2 T01450124 PNO
KTFP 220215Z AUTO 05008KT 10SM OVC007 15/13 A2989 RMK AO2 T01450125 PNO
KTFP 220155Z AUTO 05008KT 10SM BKN007 OVC012 15/13 A2988 RMK AO2 T01460125 PNO
KTFP 220135Z AUTO 05007KT 10SM OVC010 15/13 A2987 RMK AO2 T01490125 PNO
KTFP 220115Z AUTO 05007KT 10SM OVC010 15/13 A2985 RMK AO2 T01500125 PNO
KTFP 220055Z AUTO 06009KT 10SM OVC010 15/13 A2984 RMK AO2 T01510125 PNO
KTFP 220035Z AUTO 06008KT 10SM OVC010 15/13 A2983 RMK AO2 T01530125 PNO
KTFP 220015Z AUTO 07010KT 10SM OVC010 16/13 A2983 RMK AO2 T01550126 PNO
KTFP 212355Z AUTO 08007G14KT 10SM OVC010 16/13 A2984 RMK AO2 T01570128 PNO
KTFP 212335Z AUTO 05009KT 10SM OVC010 16/13 A2983 RMK AO2 T01570130 PNO
KTFP 212315Z AUTO 05010KT 10SM OVC010 16/13 A2983 RMK AO2 T01560128 PNO
KTFP 212255Z AUTO 06008KT 10SM OVC010 16/13 A2983 RMK AO2 T01580128 PNO
KTFP 212235Z AUTO 06009KT 10SM OVC010 16/13 A2984 RMK AO2 T01570127 PNO
KTFP 212215Z AUTO 05010KT 10SM OVC010 16/13 A2983 RMK AO2 T01570126 PNO
KTFP 212155Z AUTO 04009KT 10SM OVC010 16/13 A2983 RMK AO2 T01590127 PNO
KTFP 212135Z AUTO 04008KT 10SM OVC010 16/13 A2984 RMK AO2 T01600129 PNO
KTFP 212115Z AUTO 03011KT 10SM OVC012 16/13 A2984 RMK AO2 T01580130 PNO
KTFP 212055Z AUTO 05009KT 10SM OVC012 16/13 A2984 RMK AO2 T01590130 PNO
KTFP 212035Z AUTO 05011KT 10SM OVC012 16/13 A2984 RMK AO2 T01600129 PNO
KTFP 212015Z AUTO 04008KT 7SM OVC012 16/13 A2985 RMK AO2 T01600127 PNO
KTFP 211955Z AUTO 03008KT 10SM OVC012 16/13 A2986 RMK AO2 T01620125 PNO